Time;durP1;ratioP1;P1;durP2;ratioP2;P2;SDS_P1;SDS_P2;PMS_P1;PMS_P2;Temp;Humidity;BMP_temperature;BMP_pressure;BME280_temperature;BME280_humidity;BME280_pressure;Samples;Min_cycle;Max_cycle;Signal;HPM_P1;HPM_P2
2022/05/01 00:00:11;;;;;;;12.75;8.68;;;;;;;12.41;67.84;99898.16;4992633;28;20046;-75
2022/05/01 00:02:37;;;;;;;13.23;8.70;;;;;;;12.27;68.29;99891.97;4975306;28;20026;-78
2022/05/01 00:05:03;;;;;;;16.95;9.05;;;;;;;12.33;68.29;99890.63;4992833;28;20106;-79
2022/05/01 00:07:28;;;;;;;20.33;9.80;;;;;;;12.56;67.38;99899.56;4992889;28;20496;-78
2022/05/01 00:09:54;;;;;;;12.82;8.70;;;;;;;12.61;66.93;99909.78;4987078;28;20030;-77
2022/05/01 00:12:21;;;;;;;11.98;8.35;;;;;;;12.54;67.35;99921.53;4993912;28;20061;-78
2022/05/01 00:14:47;;;;;;;10.82;7.65;;;;;;;11.89;69.68;99935.59;4975073;28;20420;-79
2022/05/01 00:17:12;;;;;;;13.48;8.77;;;;;;;11.64;70.70;99924.06;5008424;28;20021;-79
2022/05/01 00:19:37;;;;;;;16.45;9.77;;;;;;;11.30;72.17;99923.75;4993585;28;20022;-78
2022/05/01 00:22:03;;;;;;;14.15;10.63;;;;;;;10.66;75.50;99925.13;5012084;28;20057;-79
2022/05/01 00:24:29;;;;;;;13.88;10.75;;;;;;;10.37;76.67;99924.50;5011993;28;20412;-76
2022/05/01 00:26:54;;;;;;;16.17;11.00;;;;;;;11.07;74.18;99943.50;4994303;28;20098;-79
2022/05/01 00:29:20;;;;;;;14.50;10.57;;;;;;;11.47;71.96;99947.34;5000866;28;20476;-79
2022/05/01 00:31:46;;;;;;;14.43;10.57;;;;;;;11.21;72.50;99940.56;4992028;28;20096;-78
2022/05/01 00:36:55;;;;;;;14.38;9.60;;;;;;;11.64;71.22;99950.13;4992672;28;20484;-78
2022/05/01 00:39:21;;;;;;;10.73;9.07;;;;;;;11.55;71.80;99954.09;4974705;28;20058;-78
2022/05/01 00:41:46;;;;;;;14.05;11.15;;;;;;;10.99;74.04;99955.53;4974810;28;20054;-78
2022/05/01 00:44:14;;;;;;;13.88;10.85;;;;;;;10.84;75.41;99953.16;5004023;28;20033;-78
2022/05/01 00:46:42;;;;;;;14.98;10.48;;;;;;;11.42;73.06;99950.28;4993111;28;20030;-79
2022/05/01 00:49:11;;;;;;;11.23;9.13;;;;;;;11.66;72.17;99952.59;4992304;28;20465;-79
2022/05/01 00:51:54;;;;;;;11.40;9.63;;;;;;;10.56;75.47;99942.22;4974724;28;20089;-78
2022/05/01 00:54:22;;;;;;;13.18;10.07;;;;;;;10.56;76.29;99940.25;4974636;28;20513;-79
2022/05/01 00:56:53;;;;;;;16.60;10.63;;;;;;;10.09;77.96;99927.50;4987357;28;20022;-79
2022/05/01 00:59:20;;;;;;;19.35;12.10;;;;;;;9.92;78.66;99928.25;5002295;28;20022;-79
2022/05/01 01:01:47;;;;;;;17.15;12.00;;;;;;;9.32;81.13;99910.72;4992104;28;20076;-78
2022/05/01 01:04:13;;;;;;;12.35;11.00;;;;;;;9.55;80.85;99907.94;4991715;28;20019;-74
2022/05/01 01:06:39;;;;;;;14.52;11.20;;;;;;;10.05;78.34;99906.91;4994212;28;20023;-79
2022/05/01 01:09:05;;;;;;;12.10;9.80;;;;;;;10.33;77.02;99903.09;4987456;28;20435;-79
2022/05/01 01:11:31;;;;;;;11.77;9.40;;;;;;;10.67;74.86;99899.63;4991937;28;20027;-79
2022/05/01 01:13:59;;;;;;;15.40;10.32;;;;;;;10.80;73.76;99911.84;4991746;28;20045;-79
2022/05/01 01:16:25;;;;;;;15.63;9.98;;;;;;;10.69;73.89;99907.69;4991995;28;20050;-78
2022/05/01 01:18:51;;;;;;;18.30;10.57;;;;;;;10.77;73.79;99901.31;4991646;28;20025;-78
2022/05/01 01:21:17;;;;;;;12.80;9.60;;;;;;;10.98;73.26;99922.25;4989753;28;20030;-79
2022/05/01 01:23:42;;;;;;;12.13;10.05;;;;;;;11.13;72.42;99913.38;4991927;28;20018;-78
2022/05/01 01:26:11;;;;;;;16.35;10.05;;;;;;;11.16;72.83;99925.91;4991953;28;20027;-79
2022/05/01 01:28:39;;;;;;;14.63;10.40;;;;;;;11.08;72.82;99933.94;4991105;28;20436;-78
2022/05/01 01:33:53;;;;;;;14.70;10.63;;;;;;;10.69;73.65;99918.09;5011686;28;20054;-79
2022/05/01 01:36:26;;;;;;;12.77;10.63;;;;;;;10.67;73.52;99913.59;5011411;28;20136;-79
2022/05/01 01:38:51;;;;;;;12.23;9.85;;;;;;;10.78;73.66;99924.50;5011199;28;20445;-79
2022/05/01 01:41:31;;;;;;;14.32;10.63;;;;;;;10.91;72.94;99933.94;5011205;28;20093;-77
2022/05/01 01:43:57;;;;;;;17.88;10.38;;;;;;;10.84;73.14;99933.56;5010586;28;20096;-79
2022/05/01 01:46:25;;;;;;;14.18;10.32;;;;;;;10.94;73.50;99922.06;4993962;28;20050;-79
2022/05/01 01:48:51;;;;;;;12.98;11.10;;;;;;;10.78;73.43;99899.31;5014825;28;20030;-79
2022/05/01 01:51:17;;;;;;;15.30;10.23;;;;;;;10.84;73.72;99922.38;4997190;28;20507;-78
2022/05/01 01:53:43;;;;;;;12.20;10.30;;;;;;;11.08;72.70;99917.16;5013882;28;20037;-79
2022/05/01 01:56:10;;;;;;;15.13;10.48;;;;;;;11.28;71.74;99911.22;4995999;28;20041;-79
2022/05/01 01:58:38;;;;;;;16.90;10.77;;;;;;;11.37;71.23;99907.28;5012301;28;20049;-78
2022/05/01 02:01:06;;;;;;;15.60;10.50;;;;;;;11.47;70.94;99910.91;5013411;28;20113;-79
2022/05/01 02:03:32;;;;;;;17.80;9.60;;;;;;;11.43;70.78;99904.31;5014648;28;20033;-79
2022/05/01 02:05:58;;;;;;;14.98;10.18;;;;;;;11.53;70.55;99903.97;5014523;28;20561;-79
2022/05/01 02:08:23;;;;;;;18.10;12.35;;;;;;;11.45;70.35;99913.19;5001580;28;20118;-79
2022/05/01 02:10:49;;;;;;;15.70;11.20;;;;;;;11.36;70.96;99908.44;4977226;28;20036;-79
2022/05/01 02:13:15;;;;;;;13.75;11.40;;;;;;;11.55;70.27;99893.25;4977480;28;20497;-79
2022/05/01 02:15:41;;;;;;;15.07;10.55;;;;;;;11.62;69.31;99898.38;5009948;28;20453;-79
2022/05/01 02:18:07;;;;;;;15.82;10.13;;;;;;;11.70;68.39;99888.28;4994631;28;20533;-79
2022/05/01 02:23:19;;;;;;;13.98;9.98;;;;;;;11.66;68.70;99902.16;4995024;28;20158;-78
2022/05/01 02:25:45;;;;;;;17.38;11.82;;;;;;;11.64;69.15;99905.28;4993371;28;20026;-79
2022/05/01 02:28:13;;;;;;;17.23;10.68;;;;;;;11.66;68.66;99913.38;4993966;28;20108;-79
2022/05/01 02:30:40;;;;;;;14.27;10.68;;;;;;;11.59;68.64;99910.25;4996110;28;20026;-79
2022/05/01 02:33:06;;;;;;;15.93;11.27;;;;;;;11.70;68.22;99919.13;4995936;28;20381;-79
2022/05/01 02:35:32;;;;;;;13.95;10.43;;;;;;;11.30;69.12;99912.56;5013952;28;20030;-79
2022/05/01 02:37:59;;;;;;;15.77;11.93;;;;;;;10.62;72.47;99904.56;5013743;28;20507;-78
2022/05/01 02:40:25;;;;;;;18.02;11.93;;;;;;;10.66;72.11;99899.97;4996415;28;20125;-79
2022/05/01 02:42:51;;;;;;;17.42;12.07;;;;;;;10.87;71.70;99904.97;4992299;28;20018;-79
2022/05/01 02:45:17;;;;;;;12.93;10.52;;;;;;;10.93;70.95;99915.66;4976798;28;20066;-78
2022/05/01 02:47:43;;;;;;;16.13;10.93;;;;;;;10.80;71.80;99911.03;5012786;28;20105;-79
2022/05/01 02:50:08;;;;;;;15.90;11.10;;;;;;;10.73;71.74;99899.47;5013972;28;20550;-78
2022/05/01 02:52:34;;;;;;;14.00;10.68;;;;;;;10.87;70.96;99894.56;4992936;28;20030;-79
2022/05/01 02:54:59;;;;;;;13.32;11.10;;;;;;;10.84;70.18;99894.41;5000427;28;20030;-79
2022/05/01 02:57:25;;;;;;;13.07;10.90;;;;;;;10.89;70.57;99903.47;5013230;28;20033;-79
2022/05/01 02:59:50;;;;;;;18.30;12.70;;;;;;;10.86;70.38;99900.47;4995383;28;20053;-78
2022/05/01 03:02:16;;;;;;;14.70;11.27;;;;;;;10.69;71.23;99909.69;4996108;28;20044;-79
2022/05/01 03:04:42;;;;;;;17.73;12.02;;;;;;;10.77;71.11;99895.72;4992751;28;20406;-78
2022/05/01 03:07:07;;;;;;;23.90;12.43;;;;;;;10.73;70.68;99871.50;4992721;28;20034;-79
2022/05/01 03:09:34;;;;;;;14.30;10.88;;;;;;;10.91;69.68;99903.94;4993759;28;20030;-78
2022/05/01 03:12:00;;;;;;;21.45;10.93;;;;;;;10.99;69.18;99901.50;4976099;28;20501;-79
2022/05/01 03:14:26;;;;;;;15.55;10.45;;;;;;;11.05;68.98;99901.00;4993784;28;20607;-78
2022/05/01 03:16:51;;;;;;;14.25;10.77;;;;;;;11.04;68.73;99893.78;4998443;28;20018;-79
2022/05/01 03:22:13;;;;;;;14.88;10.70;;;;;;;10.92;69.57;99893.59;5013590;28;20037;-78
2022/05/01 03:24:41;;;;;;;18.85;11.95;;;;;;;11.00;69.40;99906.78;4993057;28;20017;-78
2022/05/01 03:27:07;;;;;;;18.85;12.32;;;;;;;10.68;69.56;99903.25;4992293;28;20030;-79
2022/05/01 03:29:33;;;;;;;26.90;10.75;;;;;;;10.82;68.85;99909.53;4995651;28;20038;-78
2022/05/01 03:31:59;;;;;;;15.27;10.57;;;;;;;10.70;69.40;99908.53;4993423;28;20026;-79
2022/05/01 03:34:26;;;;;;;14.43;11.75;;;;;;;10.55;69.81;99909.81;4993437;28;20129;-79
2022/05/01 03:36:53;;;;;;;19.60;10.48;;;;;;;10.37;70.05;99902.13;4993325;28;20381;-79
2022/05/01 03:39:19;;;;;;;17.13;11.60;;;;;;;10.40;70.43;99914.66;4975758;28;20497;-78
2022/05/01 03:41:45;;;;;;;18.65;11.75;;;;;;;10.29;69.95;99902.13;4992674;28;20070;-79
2022/05/01 03:44:11;;;;;;;20.35;11.80;;;;;;;10.42;70.82;99915.19;5002008;28;20034;-78
2022/05/01 03:46:38;;;;;;;20.92;12.23;;;;;;;10.41;71.10;99919.13;5003361;28;20037;-78
2022/05/01 03:49:09;;;;;;;17.73;12.07;;;;;;;10.51;70.79;99910.47;4994141;28;20025;-79
2022/05/01 03:51:35;;;;;;;15.82;11.40;;;;;;;10.45;72.30;99906.16;5001755;28;20477;-78
2022/05/01 03:54:02;;;;;;;24.02;12.95;;;;;;;10.52;72.15;99914.06;4993299;28;20057;-78
2022/05/01 03:56:32;;;;;;;17.80;11.93;;;;;;;10.61;71.03;99925.28;4992911;28;20022;-78
2022/05/01 03:58:59;;;;;;;18.10;12.80;;;;;;;10.65;70.96;99915.09;5006867;28;20026;-78
2022/05/01 04:01:26;;;;;;;17.02;11.57;;;;;;;10.72;71.11;99932.22;5010795;28;20026;-78
2022/05/01 04:03:52;;;;;;;14.02;11.40;;;;;;;10.77;71.20;99932.09;4990876;28;20091;-74
2022/05/01 04:06:18;;;;;;;15.32;12.07;;;;;;;10.66;71.22;99927.94;4994382;28;20018;-82
2022/05/01 04:08:44;;;;;;;21.98;13.30;;;;;;;10.77;71.19;99928.44;4994703;28;20396;-81
2022/05/01 04:11:10;;;;;;;20.10;11.85;;;;;;;10.87;71.33;99935.75;4994318;28;20029;-75
2022/05/01 04:13:36;;;;;;;19.73;12.65;;;;;;;10.76;71.88;99932.41;5012161;28;20071;-79
2022/05/01 04:16:04;;;;;;;21.25;13.82;;;;;;;10.79;72.61;99945.72;4994834;28;20022;-79
2022/05/01 04:18:34;;;;;;;27.23;15.60;;;;;;;10.81;72.04;99941.47;4993541;28;20022;-78
2022/05/01 04:21:00;;;;;;;21.48;14.00;;;;;;;10.32;74.26;99941.44;4992407;28;20045;-78
2022/05/01 04:23:26;;;;;;;22.35;15.32;;;;;;;10.49;75.30;99948.28;5010667;28;20030;-77
2022/05/01 04:25:52;;;;;;;24.80;16.92;;;;;;;10.35;76.06;99945.53;5006403;28;20104;-78
2022/05/01 04:28:18;;;;;;;20.58;16.17;;;;;;;10.22;77.21;99939.72;4998506;28;20109;-78
2022/05/01 04:30:46;;;;;;;22.48;15.35;;;;;;;10.06;78.74;99952.47;4990990;28;20545;-78
2022/05/01 04:33:13;;;;;;;24.88;17.45;;;;;;;9.68;80.68;99942.53;5002333;28;20444;-77
2022/05/01 04:35:44;;;;;;;24.50;17.25;;;;;;;9.59;81.23;99958.38;4988056;28;20034;-77
2022/05/01 04:38:23;;;;;;;27.15;18.30;;;;;;;9.49;82.44;99953.88;5002566;28;20050;-77
2022/05/01 04:40:54;;;;;;;27.38;19.27;;;;;;;9.39;83.84;99949.38;4992268;28;20497;-77
2022/05/01 04:43:21;;;;;;;34.13;21.75;;;;;;;9.38;84.55;99951.31;4974635;28;20524;-77
2022/05/01 04:45:55;;;;;;;31.52;20.35;;;;;;;9.58;83.79;99949.19;4992209;28;20106;-77
2022/05/01 04:48:23;;;;;;;29.23;19.50;;;;;;;9.50;83.69;99959.16;4998965;28;20029;-77
2022/05/01 04:50:49;;;;;;;25.67;19.08;;;;;;;9.57;84.32;99958.72;4981777;28;20481;-76
2022/05/01 04:53:16;;;;;;;22.70;16.88;;;;;;;9.81;82.80;99958.38;4992101;28;20030;-76
2022/05/01 04:55:43;;;;;;;20.45;16.15;;;;;;;10.05;82.03;99960.03;4992132;28;20030;-76
2022/05/01 04:58:11;;;;;;;25.58;16.92;;;;;;;10.22;81.48;99948.13;4993650;28;20017;-76
2022/05/01 05:00:37;;;;;;;23.20;16.67;;;;;;;10.50;80.96;99963.91;4999985;28;20113;-76
2022/05/01 05:03:03;;;;;;;23.20;16.58;;;;;;;10.63;81.58;99948.97;4991998;28;20056;-75
2022/05/01 05:05:31;;;;;;;25.10;14.65;;;;;;;10.70;80.04;99962.50;4974516;28;20022;-77
2022/05/01 05:09:53;;;;;;;19.13;13.68;;;;;;;10.79;79.31;99946.56;4996513;28;20030;-77
2022/05/01 05:10:47;;;;;;;22.85;14.13;;;;;;;10.66;81.33;99956.72;5010970;28;20025;-76
2022/05/01 05:13:14;;;;;;;19.55;13.13;;;;;;;10.60;80.55;99955.22;4975038;28;20026;-75
2022/05/01 05:15:40;;;;;;;20.48;14.57;;;;;;;10.88;80.60;99951.38;4991800;28;20026;-77
2022/05/01 05:18:05;;;;;;;17.80;13.85;;;;;;;11.09;79.94;99952.38;4991964;28;20417;-77
2022/05/01 05:20:31;;;;;;;20.67;13.98;;;;;;;11.28;78.42;99945.66;4973964;28;20030;-76
2022/05/01 05:22:56;;;;;;;20.45;13.85;;;;;;;11.20;79.05;99943.69;5001750;28;20026;-77
2022/05/01 05:25:22;;;;;;;17.83;13.60;;;;;;;11.27;78.75;99944.03;5007100;28;20018;-75
2022/05/01 05:27:47;;;;;;;21.33;13.55;;;;;;;11.46;77.58;99948.47;5000802;28;20029;-79
2022/05/01 05:30:13;;;;;;;16.40;12.30;;;;;;;11.49;77.60;99953.44;4997466;28;20022;-75
2022/05/01 05:32:39;;;;;;;17.73;12.63;;;;;;;11.62;77.26;99958.03;4994160;28;20026;-76
2022/05/01 05:35:05;;;;;;;18.88;12.70;;;;;;;11.70;77.34;99953.56;4976595;28;20022;-76
2022/05/01 05:37:33;;;;;;;18.63;12.13;;;;;;;11.58;77.50;99957.03;4999161;28;20884;-76
2022/05/01 05:40:00;;;;;;;18.10;13.18;;;;;;;11.78;77.43;99954.72;4979387;28;20431;-76
2022/05/01 05:42:26;;;;;;;19.20;12.85;;;;;;;11.78;76.98;99961.16;5004284;28;20030;-75
2022/05/01 05:44:52;;;;;;;20.05;13.43;;;;;;;11.62;77.94;99955.25;4978391;28;20026;-74
2022/05/01 05:47:17;;;;;;;14.45;12.88;;;;;;;11.78;77.36;99965.94;5003132;28;20030;-75
2022/05/01 05:49:43;;;;;;;19.35;12.57;;;;;;;11.79;77.80;99964.78;4994798;28;20026;-75
2022/05/01 05:52:09;;;;;;;13.70;11.90;;;;;;;11.86;77.53;99962.31;4993981;28;20026;-77
2022/05/01 05:54:34;;;;;;;21.83;13.23;;;;;;;11.77;76.55;99967.09;5002734;28;20026;-76
2022/05/01 05:57:00;;;;;;;16.30;12.52;;;;;;;11.62;77.35;99974.84;5015175;28;20018;-76
2022/05/01 05:59:25;;;;;;;20.33;13.65;;;;;;;11.75;77.38;99969.41;5007370;28;20026;-75
2022/05/01 06:01:51;;;;;;;14.40;12.90;;;;;;;11.82;76.47;99972.50;4989032;28;20076;-75
2022/05/01 06:04:16;;;;;;;18.45;12.38;;;;;;;12.12;75.91;99974.63;5015069;28;20096;-78
2022/05/01 06:06:42;;;;;;;19.77;13.63;;;;;;;11.88;75.87;99981.56;5010957;28;20049;-78
2022/05/01 06:09:08;;;;;;;16.83;12.70;;;;;;;12.30;75.31;99983.84;4995419;28;20084;-79
2022/05/01 06:11:35;;;;;;;22.80;12.02;;;;;;;12.41;74.12;99971.09;4995970;28;20505;-76
2022/05/01 06:14:03;;;;;;;14.85;11.93;;;;;;;12.66;72.82;99974.13;5003619;28;20112;-79
2022/05/01 06:16:28;;;;;;;17.70;12.88;;;;;;;12.78;72.85;99965.81;4997126;28;20057;-78
2022/05/01 06:18:55;;;;;;;14.45;11.82;;;;;;;12.86;71.31;99958.53;5014695;28;20045;-79
2022/05/01 06:21:21;;;;;;;21.17;13.73;;;;;;;12.99;70.45;99964.25;5014306;28;20535;-78
2022/05/01 06:23:48;;;;;;;14.98;12.98;;;;;;;12.88;71.36;99963.78;4998461;28;20035;-76
2022/05/01 06:26:14;;;;;;;15.85;12.02;;;;;;;13.12;72.03;99960.38;4985448;28;20018;-74
2022/05/01 06:28:40;;;;;;;15.20;12.07;;;;;;;13.27;71.63;99956.13;4983168;28;20033;-79
2022/05/01 06:31:06;;;;;;;13.52;11.52;;;;;;;12.98;71.51;99959.81;5014395;28;20033;-78
2022/05/01 06:33:35;;;;;;;17.90;12.77;;;;;;;13.26;70.80;99962.91;5013977;28;20057;-76
2022/05/01 06:36:01;;;;;;;17.30;13.27;;;;;;;13.16;71.20;99957.69;5014079;28;20026;-79
2022/05/01 06:38:28;;;;;;;19.17;12.32;;;;;;;13.62;69.88;99963.50;4990280;28;20058;-79
2022/05/01 06:40:54;;;;;;;15.95;12.05;;;;;;;13.86;68.66;99956.34;4993991;28;20081;-80
2022/05/01 06:43:20;;;;;;;16.10;11.93;;;;;;;14.25;69.63;99964.56;4983177;28;20133;-78
2022/05/01 06:45:47;;;;;;;20.15;12.77;;;;;;;13.90;67.97;99960.09;5004935;28;20033;-75
2022/05/01 06:48:13;;;;;;;13.70;11.25;;;;;;;14.25;67.16;99956.91;4988140;28;20489;-76
2022/05/01 06:50:38;;;;;;;15.02;10.20;;;;;;;14.45;66.82;99957.19;4988408;28;20037;-76
2022/05/01 06:53:06;;;;;;;14.55;12.40;;;;;;;14.25;66.31;99953.28;5005644;28;20033;-77
2022/05/01 06:55:32;;;;;;;14.57;11.77;;;;;;;14.39;67.26;99959.41;5004637;28;20026;-73
2022/05/01 06:57:57;;;;;;;15.68;11.00;;;;;;;14.43;66.54;99965.97;5006728;28;20091;-74
2022/05/01 07:00:24;;;;;;;15.23;11.77;;;;;;;14.33;67.42;99960.78;5004593;28;20552;-79
2022/05/01 07:02:52;;;;;;;15.18;12.60;;;;;;;14.84;67.18;99956.88;5004245;28;20139;-75
2022/05/01 07:05:19;;;;;;;14.50;11.13;;;;;;;15.24;64.93;99964.59;5006282;28;20070;-75
2022/05/01 07:07:45;;;;;;;16.85;11.80;;;;;;;15.34;64.53;99960.47;4996905;28;20022;-75
2022/05/01 07:10:11;;;;;;;15.48;10.57;;;;;;;15.73;63.70;99954.38;5003962;28;20105;-75
2022/05/01 07:12:37;;;;;;;13.52;10.93;;;;;;;15.14;64.13;99968.75;4995984;28;20117;-72
2022/05/01 07:15:04;;;;;;;17.40;11.45;;;;;;;15.63;62.99;99966.16;5000405;28;20026;-72
2022/05/01 07:17:30;;;;;;;14.40;11.00;;;;;;;15.77;63.53;99962.94;4999723;28;20049;-73
2022/05/01 07:19:55;;;;;;;12.82;11.50;;;;;;;15.29;63.98;99955.91;5004117;28;20064;-73
2022/05/01 07:22:21;;;;;;;14.15;10.38;;;;;;;14.93;64.06;99960.41;4976915;28;20026;-73
2022/05/01 07:24:46;;;;;;;17.38;10.43;;;;;;;15.16;65.63;99965.56;5006363;28;20110;-73
2022/05/01 07:27:11;;;;;;;15.98;9.43;;;;;;;15.69;64.36;99962.72;5012872;28;20029;-73
2022/05/01 07:29:37;;;;;;;11.70;10.02;;;;;;;15.97;62.82;99964.75;4996317;28;20389;-73
2022/05/01 07:32:03;;;;;;;9.75;8.75;;;;;;;16.13;61.02;99967.59;4997145;28;20026;-72
2022/05/01 07:34:29;;;;;;;22.35;9.82;;;;;;;16.10;60.93;99968.34;4985988;28;20026;-73
2022/05/01 07:36:54;;;;;;;14.40;9.35;;;;;;;16.11;60.94;99972.00;4984067;28;20029;-73
2022/05/01 07:39:20;;;;;;;11.95;8.45;;;;;;;16.14;60.26;99977.72;4988019;28;20046;-73
2022/05/01 07:41:46;;;;;;;19.85;12.20;;;;;;;15.77;60.12;99972.22;4981458;28;20549;-73
2022/05/01 07:44:11;;;;;;;9.05;7.47;;;;;;;15.79;60.27;99972.66;4981448;28;20022;-74
2022/05/01 07:46:58;;;;;;;19.15;8.80;;;;;;;16.03;60.89;99975.78;4985619;28;20089;-77
2022/05/01 07:49:42;;;;;;;14.30;8.93;;;;;;;16.31;60.11;99961.66;4973068;28;20075;-77
2022/05/01 07:52:09;;;;;;;14.30;8.80;;;;;;;16.58;57.55;99967.56;4978436;28;20550;-75
2022/05/01 07:54:34;;;;;;;11.20;7.80;;;;;;;17.00;57.86;99965.38;4977990;28;20797;-74
2022/05/01 07:57:00;;;;;;;7.40;6.60;;;;;;;17.29;54.66;99958.41;4974565;28;20148;-75
2022/05/01 07:59:25;;;;;;;15.60;6.78;;;;;;;17.49;54.22;99962.06;4963284;28;20446;-74
2022/05/01 08:01:52;;;;;;;8.00;6.65;;;;;;;17.54;53.92;99953.31;4980025;28;20033;-74
2022/05/01 08:04:29;;;;;;;7.57;5.60;;;;;;;17.64;50.87;99954.72;4990358;28;20116;-73
2022/05/01 08:07:00;;;;;;;10.55;6.55;;;;;;;17.62;51.45;99944.97;4990362;28;20413;-76
2022/05/01 08:09:26;;;;;;;;;;;;;;;17.69;49.97;99945.13;4974961;28;20046;-74
2022/05/01 08:11:52;;;;;;;6.78;5.55;;;;;;;17.77;51.03;99949.75;4976477;28;19918;-75
2022/05/01 08:14:18;;;;;;;14.32;5.82;;;;;;;18.04;51.77;99938.56;4980179;28;20112;-76
2022/05/01 08:16:44;;;;;;;10.23;6.15;;;;;;;18.05;50.07;99940.19;4985082;28;20037;-77
2022/05/01 08:21:54;;;;;;;9.27;6.13;;;;;;;17.99;48.53;99944.50;4972915;28;20090;-76
2022/05/01 08:24:20;;;;;;;6.53;5.00;;;;;;;18.16;49.62;99940.44;4986884;28;20477;-76
2022/05/01 08:26:48;;;;;;;5.90;5.13;;;;;;;18.45;47.83;99934.44;4989780;28;20077;-77
2022/05/01 08:29:15;;;;;;;5.78;4.68;;;;;;;18.58;47.14;99933.06;4980247;28;20022;-76
2022/05/01 08:31:45;;;;;;;5.93;5.07;;;;;;;18.63;45.97;99927.09;4976677;28;20111;-77
2022/05/01 08:34:11;;;;;;;6.88;4.88;;;;;;;18.84;46.77;99933.47;4998785;28;20106;-78
2022/05/01 08:36:38;;;;;;;6.25;5.45;;;;;;;19.08;47.24;99910.38;4988214;28;20027;-75
2022/05/01 08:39:04;;;;;;;10.82;5.93;;;;;;;19.34;46.61;99920.06;4996036;28;20051;-75
2022/05/01 08:41:32;;;;;;;6.57;4.53;;;;;;;19.02;42.83;99925.28;4991361;28;20084;-76
2022/05/01 08:43:58;;;;;;;6.53;4.55;;;;;;;19.01;43.48;99915.97;5008885;28;20034;-75
2022/05/01 08:46:42;;;;;;;5.10;4.60;;;;;;;18.50;45.76;99908.66;4998122;28;20038;-81
2022/05/01 08:49:09;;;;;;;5.93;4.72;;;;;;;18.87;43.94;99904.38;4985250;28;20875;-76
2022/05/01 08:51:46;;;;;;;6.60;4.20;;;;;;;18.72;40.76;99909.81;4999606;28;20095;-74
2022/05/01 08:54:18;;;;;;;5.97;4.03;;;;;;;18.79;42.26;99901.44;4999500;28;20507;-74
2022/05/01 08:56:45;;;;;;;8.02;3.80;;;;;;;19.20;42.84;99900.03;4995274;28;20040;-71
2022/05/01 08:59:14;;;;;;;35.72;6.53;;;;;;;19.42;43.17;99892.59;4991345;28;20588;-73
2022/05/01 09:01:41;;;;;;;11.98;4.07;;;;;;;19.61;40.50;99891.66;4998183;28;20029;-74
2022/05/01 09:04:09;;;;;;;6.25;3.97;;;;;;;19.54;38.92;99897.22;4982232;28;20066;-72
2022/05/01 09:06:36;;;;;;;17.92;4.03;;;;;;;19.46;40.06;99890.66;5008987;28;20116;-74
2022/05/01 09:09:06;;;;;;;6.65;3.47;;;;;;;19.74;39.95;99889.34;4995073;28;20026;-73
2022/05/01 09:14:16;;;;;;;5.97;3.35;;;;;;;19.59;38.44;99891.19;5002634;28;20053;-72
2022/05/01 09:16:42;;;;;;;4.40;2.63;;;;;;;19.82;38.14;99886.63;5015177;28;20034;-72
2022/05/01 09:19:07;;;;;;;6.05;3.53;;;;;;;19.80;34.83;99886.19;5008319;28;20146;-73
2022/05/01 09:21:53;;;;;;;6.68;2.95;;;;;;;19.69;35.75;99883.22;5005952;28;20037;-73
2022/05/01 09:24:29;;;;;;;4.63;2.95;;;;;;;19.71;35.08;99877.97;5002361;28;20034;-73
2022/05/01 09:26:57;;;;;;;3.63;2.83;;;;;;;19.74;35.45;99878.00;5006347;28;20034;-70
2022/05/01 09:29:24;;;;;;;3.28;2.78;;;;;;;19.84;35.38;99852.97;4997574;28;20042;-73
2022/05/01 09:31:50;;;;;;;3.72;3.05;;;;;;;19.59;34.80;99856.34;5015158;28;20149;-73
2022/05/01 09:34:32;;;;;;;4.75;2.97;;;;;;;20.04;36.34;99860.13;5014825;28;20034;-72
2022/05/01 09:37:00;;;;;;;5.15;4.25;;;;;;;20.24;33.11;99859.06;5005331;28;20397;-73
2022/05/01 09:39:28;;;;;;;3.95;3.03;;;;;;;19.87;32.44;99853.03;4982936;28;20130;-73
2022/05/01 09:41:55;;;;;;;19.73;7.55;;;;;;;19.79;34.00;99848.47;4989404;28;20031;-72
2022/05/01 09:44:22;;;;;;;5.40;3.28;;;;;;;20.15;33.76;99848.03;4985153;28;20085;-73
2022/05/01 09:46:49;;;;;;;5.40;3.08;;;;;;;20.30;34.99;99835.59;4980775;28;20034;-73
2022/05/01 09:49:17;;;;;;;7.72;3.15;;;;;;;20.52;34.58;99840.63;4985167;28;20034;-73
2022/05/01 09:51:52;;;;;;;7.95;4.22;;;;;;;20.19;34.59;99843.22;4991017;28;20465;-74
2022/05/01 09:54:22;;;;;;;7.95;4.28;;;;;;;20.11;34.28;99827.31;4993773;28;20059;-74
2022/05/01 09:56:54;;;;;;;8.48;3.35;;;;;;;20.49;32.59;99830.84;4985650;28;20034;-73
2022/05/01 09:59:21;;;;;;;24.88;5.63;;;;;;;20.57;33.57;99824.03;4984965;28;20031;-72
2022/05/01 10:02:03;;;;;;;3.53;3.08;;;;;;;20.88;32.46;99819.00;4987643;28;20073;-73
2022/05/01 10:04:34;;;;;;;5.57;3.00;;;;;;;20.98;30.00;99813.75;4989278;28;20105;-76
2022/05/01 10:07:01;;;;;;;8.82;4.03;;;;;;;20.84;30.72;99817.34;4992764;28;20453;-73
2022/05/01 10:09:28;;;;;;;20.38;4.47;;;;;;;20.62;29.42;99812.28;4993561;28;20385;-75
2022/05/01 10:11:56;;;;;;;5.93;3.15;;;;;;;20.81;28.26;99818.06;4992087;28;20643;-74
2022/05/01 10:14:22;;;;;;;7.95;4.55;;;;;;;20.56;29.29;99799.66;4994662;28;20088;-74
2022/05/01 10:16:48;;;;;;;8.00;2.55;;;;;;;20.82;29.49;99792.13;4988076;28;20489;-75
2022/05/01 10:19:15;;;;;;;4.07;2.95;;;;;;;20.52;28.60;99793.16;4992638;28;20564;-74
2022/05/01 10:21:46;;;;;;;5.25;3.38;;;;;;;20.97;27.82;99789.38;4993335;28;20196;-74
2022/05/01 10:24:12;;;;;;;4.65;3.40;;;;;;;20.66;26.75;99783.09;4994671;28;20018;-74
2022/05/01 10:26:44;;;;;;;3.85;2.38;;;;;;;20.91;27.71;99783.25;4992980;28;20026;-75
2022/05/01 10:29:28;;;;;;;3.80;2.28;;;;;;;20.96;28.21;99785.72;4994546;28;20046;-74
2022/05/01 10:32:23;;;;;;;5.10;3.17;;;;;;;21.23;28.10;99782.59;4986512;28;20565;-74
2022/05/01 10:35:10;;;;;;;8.07;2.70;;;;;;;21.19;29.58;99773.22;4984627;28;20018;-75
2022/05/01 10:37:50;;;;;;;7.68;2.88;;;;;;;21.55;29.68;99786.72;4998295;28;20050;-75
2022/05/01 10:40:17;;;;;;;5.10;2.30;;;;;;;21.42;27.83;99772.09;4996222;28;20388;-74
2022/05/01 10:42:47;;;;;;;3.67;2.90;;;;;;;21.41;28.52;99767.59;4992902;28;20408;-75
2022/05/01 10:45:21;;;;;;;5.40;2.22;;;;;;;21.32;26.83;99765.97;4976990;28;20389;-75
2022/05/01 10:47:51;;;;;;;3.97;2.33;;;;;;;21.10;28.36;99759.38;4977833;28;20104;-75
2022/05/01 10:50:22;;;;;;;3.38;2.20;;;;;;;21.16;28.68;99760.63;4995627;28;20029;-75
2022/05/01 10:53:12;;;;;;;2.65;1.88;;;;;;;21.46;27.61;99747.28;5003784;28;20042;-75
2022/05/01 10:55:51;;;;;;;4.13;2.35;;;;;;;21.46;28.34;99745.25;4976653;28;20061;-75
2022/05/01 10:58:20;;;;;;;4.28;1.95;;;;;;;21.42;27.19;99743.63;4999845;28;20022;-74
2022/05/01 11:00:51;;;;;;;5.70;2.10;;;;;;;21.60;26.51;99746.50;5004727;28;20022;-74
2022/05/01 11:03:30;;;;;;;3.97;2.35;;;;;;;21.18;26.62;99743.97;4992077;28;20516;-74
2022/05/01 11:06:02;;;;;;;4.33;2.10;;;;;;;20.62;27.85;99740.44;4975884;28;20057;-74
2022/05/01 11:08:31;;;;;;;6.57;3.88;;;;;;;20.96;27.78;99742.25;5003969;28;20823;-75
2022/05/01 11:10:59;;;;;;;3.28;2.63;;;;;;;21.16;27.78;99737.03;4997728;28;20396;-73
2022/05/01 11:13:32;;;;;;;2.92;2.35;;;;;;;21.04;26.57;99724.00;4993826;28;20023;-74
2022/05/01 11:15:58;;;;;;;2.53;2.10;;;;;;;21.45;27.48;99729.41;5011936;28;20038;-75
2022/05/01 11:18:34;;;;;;;5.85;2.08;;;;;;;21.28;25.11;99733.03;4995385;28;20022;-74
2022/05/01 11:21:24;;;;;;;4.03;1.42;;;;;;;21.34;22.33;99731.41;4994273;28;20022;-75
2022/05/01 11:24:01;;;;;;;3.08;1.98;;;;;;;21.63;23.73;99724.94;5011721;28;20075;-73
2022/05/01 11:26:29;;;;;;;4.50;2.03;;;;;;;21.86;24.55;99728.25;4999622;28;20061;-77
2022/05/01 11:29:10;;;;;;;2.88;2.28;;;;;;;21.67;22.50;99726.63;5002108;28;20460;-75
2022/05/01 11:31:35;;;;;;;;;;;;;;;21.82;25.68;99718.91;4998523;28;20033;-74
2022/05/01 11:34:16;;;;;;;7.38;3.25;;;;;;;21.80;25.88;99718.50;5012171;28;20008;-73
2022/05/01 11:36:57;;;;;;;4.25;2.75;;;;;;;21.58;23.66;99717.63;4994889;28;20034;-74
2022/05/01 11:39:50;;;;;;;7.65;2.92;;;;;;;21.62;26.35;99717.63;4993849;28;20070;-76
2022/05/01 11:42:25;;;;;;;7.70;3.50;;;;;;;21.84;25.41;99719.31;4998447;28;20396;-77
2022/05/01 11:44:58;;;;;;;5.50;2.90;;;;;;;21.67;25.84;99709.53;5001475;28;20026;-80